sensor_id;sensor_type;location;lat;lon;timestamp;P1;durP1;ratioP1;P2;durP2;ratioP2
37297;SDS011;30517;51.932;4.278;2023-02-28T00:00:14;2.92;;;1.25;;
37297;SDS011;30517;51.932;4.278;2023-02-28T00:02:55;2.55;;;1.48;;
37297;SDS011;30517;51.932;4.278;2023-02-28T00:05:36;2.72;;;1.42;;
37297;SDS011;30517;51.932;4.278;2023-02-28T00:08:17;2.70;;;1.30;;
37297;SDS011;30517;51.932;4.278;2023-02-28T00:11:16;2.55;;;1.60;;
37297;SDS011;30517;51.932;4.278;2023-02-28T00:13:57;2.95;;;1.63;;
37297;SDS011;30517;51.932;4.278;2023-02-28T00:16:39;3.15;;;1.52;;
37297;SDS011;30517;51.932;4.278;2023-02-28T00:19:19;2.65;;;1.38;;
37297;SDS011;30517;51.932;4.278;2023-02-28T00:22:00;2.78;;;1.30;;
37297;SDS011;30517;51.932;4.278;2023-02-28T00:24:41;1.52;;;0.98;;
37297;SDS011;30517;51.932;4.278;2023-02-28T00:27:22;3.28;;;1.40;;
37297;SDS011;30517;51.932;4.278;2023-02-28T00:30:03;2.95;;;1.50;;
37297;SDS011;30517;51.932;4.278;2023-02-28T00:32:45;3.38;;;1.33;;
37297;SDS011;30517;51.932;4.278;2023-02-28T00:35:26;3.30;;;1.38;;
37297;SDS011;30517;51.932;4.278;2023-02-28T00:38:07;2.55;;;1.45;;
37297;SDS011;30517;51.932;4.278;2023-02-28T00:40:48;2.08;;;1.30;;
37297;SDS011;30517;51.932;4.278;2023-02-28T00:43:28;3.35;;;1.40;;
37297;SDS011;30517;51.932;4.278;2023-02-28T00:46:09;4.05;;;1.80;;
37297;SDS011;30517;51.932;4.278;2023-02-28T00:48:53;4.03;;;1.55;;
37297;SDS011;30517;51.932;4.278;2023-02-28T00:51:33;2.53;;;1.30;;
37297;SDS011;30517;51.932;4.278;2023-02-28T00:54:14;3.47;;;1.60;;
37297;SDS011;30517;51.932;4.278;2023-02-28T00:56:55;2.55;;;1.40;;
37297;SDS011;30517;51.932;4.278;2023-02-28T00:59:36;3.45;;;1.60;;
37297;SDS011;30517;51.932;4.278;2023-02-28T01:02:17;2.28;;;1.20;;
37297;SDS011;30517;51.932;4.278;2023-02-28T01:04:59;4.20;;;1.60;;
37297;SDS011;30517;51.932;4.278;2023-02-28T01:07:40;2.80;;;1.30;;
37297;SDS011;30517;51.932;4.278;2023-02-28T01:10:21;3.20;;;1.25;;
37297;SDS011;30517;51.932;4.278;2023-02-28T01:13:02;2.40;;;1.30;;
37297;SDS011;30517;51.932;4.278;2023-02-28T01:15:45;2.72;;;1.48;;
37297;SDS011;30517;51.932;4.278;2023-02-28T01:18:30;2.95;;;1.40;;
37297;SDS011;30517;51.932;4.278;2023-02-28T01:21:13;2.25;;;1.05;;
37297;SDS011;30517;51.932;4.278;2023-02-28T01:23:56;4.35;;;2.08;;
37297;SDS011;30517;51.932;4.278;2023-02-28T01:26:37;2.70;;;1.20;;
37297;SDS011;30517;51.932;4.278;2023-02-28T01:29:18;2.28;;;1.23;;
37297;SDS011;30517;51.932;4.278;2023-02-28T01:31:59;2.47;;;1.30;;
37297;SDS011;30517;51.932;4.278;2023-02-28T01:34:43;3.38;;;1.52;;
37297;SDS011;30517;51.932;4.278;2023-02-28T01:37:23;2.72;;;1.35;;
37297;SDS011;30517;51.932;4.278;2023-02-28T01:40:05;3.08;;;1.48;;
37297;SDS011;30517;51.932;4.278;2023-02-28T01:42:46;3.28;;;1.40;;
37297;SDS011;30517;51.932;4.278;2023-02-28T01:45:31;4.82;;;1.95;;
37297;SDS011;30517;51.932;4.278;2023-02-28T01:48:12;1.98;;;1.02;;
37297;SDS011;30517;51.932;4.278;2023-02-28T01:50:53;2.67;;;1.33;;
37297;SDS011;30517;51.932;4.278;2023-02-28T01:53:39;2.30;;;1.35;;
37297;SDS011;30517;51.932;4.278;2023-02-28T01:56:27;2.20;;;1.30;;
37297;SDS011;30517;51.932;4.278;2023-02-28T01:59:12;3.45;;;1.60;;
37297;SDS011;30517;51.932;4.278;2023-02-28T02:01:57;3.72;;;1.92;;
37297;SDS011;30517;51.932;4.278;2023-02-28T02:04:49;3.05;;;1.65;;
37297;SDS011;30517;51.932;4.278;2023-02-28T02:07:37;3.05;;;1.35;;
37297;SDS011;30517;51.932;4.278;2023-02-28T02:10:21;3.30;;;1.48;;
37297;SDS011;30517;51.932;4.278;2023-02-28T02:13:16;2.35;;;1.20;;
37297;SDS011;30517;51.932;4.278;2023-02-28T02:16:36;2.35;;;1.15;;
37297;SDS011;30517;51.932;4.278;2023-02-28T02:19:44;2.25;;;1.30;;
37297;SDS011;30517;51.932;4.278;2023-02-28T02:22:38;4.15;;;1.50;;
37297;SDS011;30517;51.932;4.278;2023-02-28T02:25:40;3.33;;;1.55;;
37297;SDS011;30517;51.932;4.278;2023-02-28T02:43:36;3.22;;;1.73;;
37297;SDS011;30517;51.932;4.278;2023-02-28T02:46:19;2.67;;;1.27;;
37297;SDS011;30517;51.932;4.278;2023-02-28T02:49:04;2.85;;;1.30;;
37297;SDS011;30517;51.932;4.278;2023-02-28T02:51:50;2.67;;;1.60;;
37297;SDS011;30517;51.932;4.278;2023-02-28T02:54:38;2.95;;;1.40;;
37297;SDS011;30517;51.932;4.278;2023-02-28T02:57:23;3.35;;;1.55;;
37297;SDS011;30517;51.932;4.278;2023-02-28T03:00:11;3.13;;;1.60;;
37297;SDS011;30517;51.932;4.278;2023-02-28T03:02:56;2.45;;;1.35;;
37297;SDS011;30517;51.932;4.278;2023-02-28T03:05:50;2.70;;;1.30;;
37297;SDS011;30517;51.932;4.278;2023-02-28T03:08:35;2.50;;;1.33;;
37297;SDS011;30517;51.932;4.278;2023-02-28T03:11:18;4.95;;;1.35;;
37297;SDS011;30517;51.932;4.278;2023-02-28T03:26:02;3.90;;;1.50;;
37297;SDS011;30517;51.932;4.278;2023-02-28T03:31:48;3.38;;;1.60;;
37297;SDS011;30517;51.932;4.278;2023-02-28T03:34:34;4.00;;;1.55;;
37297;SDS011;30517;51.932;4.278;2023-02-28T03:37:20;3.05;;;1.58;;
37297;SDS011;30517;51.932;4.278;2023-02-28T03:40:06;2.90;;;1.40;;
37297;SDS011;30517;51.932;4.278;2023-02-28T03:42:54;2.85;;;1.60;;
37297;SDS011;30517;51.932;4.278;2023-02-28T03:45:40;2.92;;;1.70;;
37297;SDS011;30517;51.932;4.278;2023-02-28T03:48:26;2.55;;;1.50;;
37297;SDS011;30517;51.932;4.278;2023-02-28T03:51:14;4.35;;;1.63;;
37297;SDS011;30517;51.932;4.278;2023-02-28T03:53:59;2.80;;;1.30;;
37297;SDS011;30517;51.932;4.278;2023-02-28T03:56:47;3.40;;;1.70;;
37297;SDS011;30517;51.932;4.278;2023-02-28T03:59:36;3.53;;;1.40;;
37297;SDS011;30517;51.932;4.278;2023-02-28T04:02:20;3.22;;;1.80;;
37297;SDS011;30517;51.932;4.278;2023-02-28T04:05:01;2.55;;;1.40;;
37297;SDS011;30517;51.932;4.278;2023-02-28T04:07:42;3.80;;;1.40;;
37297;SDS011;30517;51.932;4.278;2023-02-28T04:10:22;2.58;;;1.40;;
37297;SDS011;30517;51.932;4.278;2023-02-28T04:13:03;3.55;;;1.58;;
37297;SDS011;30517;51.932;4.278;2023-02-28T04:15:44;2.85;;;1.70;;
37297;SDS011;30517;51.932;4.278;2023-02-28T04:18:25;3.25;;;1.65;;
37297;SDS011;30517;51.932;4.278;2023-02-28T04:21:06;2.25;;;1.38;;
37297;SDS011;30517;51.932;4.278;2023-02-28T04:23:47;2.55;;;1.45;;
37297;SDS011;30517;51.932;4.278;2023-02-28T04:26:29;2.90;;;1.60;;
37297;SDS011;30517;51.932;4.278;2023-02-28T04:29:11;3.72;;;1.48;;
37297;SDS011;30517;51.932;4.278;2023-02-28T04:31:53;2.57;;;1.50;;
37297;SDS011;30517;51.932;4.278;2023-02-28T04:34:37;4.40;;;1.77;;
37297;SDS011;30517;51.932;4.278;2023-02-28T04:37:18;5.10;;;1.80;;
37297;SDS011;30517;51.932;4.278;2023-02-28T04:40:02;3.72;;;1.65;;
37297;SDS011;30517;51.932;4.278;2023-02-28T04:42:47;3.45;;;1.60;;
37297;SDS011;30517;51.932;4.278;2023-02-28T04:45:28;2.95;;;1.60;;
37297;SDS011;30517;51.932;4.278;2023-02-28T04:48:12;2.70;;;1.58;;
37297;SDS011;30517;51.932;4.278;2023-02-28T04:50:52;3.47;;;1.77;;
37297;SDS011;30517;51.932;4.278;2023-02-28T04:53:33;4.65;;;1.83;;
37297;SDS011;30517;51.932;4.278;2023-02-28T04:56:16;2.70;;;1.48;;
37297;SDS011;30517;51.932;4.278;2023-02-28T04:58:57;3.17;;;1.98;;
37297;SDS011;30517;51.932;4.278;2023-02-28T05:01:38;3.65;;;1.70;;
37297;SDS011;30517;51.932;4.278;2023-02-28T05:04:19;4.15;;;2.13;;
37297;SDS011;30517;51.932;4.278;2023-02-28T05:07:00;2.45;;;1.35;;
37297;SDS011;30517;51.932;4.278;2023-02-28T05:09:41;3.50;;;1.70;;
37297;SDS011;30517;51.932;4.278;2023-02-28T05:12:22;3.33;;;2.05;;
37297;SDS011;30517;51.932;4.278;2023-02-28T05:15:03;3.28;;;1.73;;
37297;SDS011;30517;51.932;4.278;2023-02-28T05:17:44;4.10;;;1.92;;
37297;SDS011;30517;51.932;4.278;2023-02-28T05:20:25;3.90;;;1.95;;
37297;SDS011;30517;51.932;4.278;2023-02-28T05:23:06;5.68;;;2.17;;
37297;SDS011;30517;51.932;4.278;2023-02-28T05:25:49;3.65;;;2.00;;
37297;SDS011;30517;51.932;4.278;2023-02-28T05:28:31;3.42;;;1.73;;
37297;SDS011;30517;51.932;4.278;2023-02-28T05:31:12;3.22;;;1.60;;
37297;SDS011;30517;51.932;4.278;2023-02-28T05:33:54;7.00;;;2.97;;
37297;SDS011;30517;51.932;4.278;2023-02-28T05:36:36;7.75;;;3.50;;
37297;SDS011;30517;51.932;4.278;2023-02-28T05:39:17;5.50;;;3.25;;
37297;SDS011;30517;51.932;4.278;2023-02-28T05:41:58;7.78;;;3.38;;
37297;SDS011;30517;51.932;4.278;2023-02-28T05:44:39;7.65;;;3.25;;
37297;SDS011;30517;51.932;4.278;2023-02-28T05:47:20;5.20;;;3.08;;
37297;SDS011;30517;51.932;4.278;2023-02-28T05:50:01;6.03;;;3.38;;
37297;SDS011;30517;51.932;4.278;2023-02-28T05:52:42;6.28;;;3.13;;
37297;SDS011;30517;51.932;4.278;2023-02-28T05:55:23;5.30;;;2.95;;
37297;SDS011;30517;51.932;4.278;2023-02-28T05:58:03;5.22;;;3.17;;
37297;SDS011;30517;51.932;4.278;2023-02-28T06:00:44;5.13;;;3.40;;
37297;SDS011;30517;51.932;4.278;2023-02-28T06:03:25;6.07;;;2.95;;
37297;SDS011;30517;51.932;4.278;2023-02-28T06:06:07;5.53;;;3.35;;
37297;SDS011;30517;51.932;4.278;2023-02-28T06:08:47;5.82;;;3.20;;
37297;SDS011;30517;51.932;4.278;2023-02-28T06:11:28;6.18;;;3.05;;
37297;SDS011;30517;51.932;4.278;2023-02-28T06:14:14;6.10;;;3.42;;
37297;SDS011;30517;51.932;4.278;2023-02-28T06:16:57;6.20;;;3.47;;
37297;SDS011;30517;51.932;4.278;2023-02-28T06:19:38;6.45;;;4.88;;
37297;SDS011;30517;51.932;4.278;2023-02-28T06:22:19;6.18;;;3.40;;
37297;SDS011;30517;51.932;4.278;2023-02-28T06:25:01;4.90;;;2.90;;
37297;SDS011;30517;51.932;4.278;2023-02-28T06:27:42;6.30;;;3.20;;
37297;SDS011;30517;51.932;4.278;2023-02-28T06:30:23;5.82;;;3.25;;
37297;SDS011;30517;51.932;4.278;2023-02-28T06:33:06;6.10;;;3.33;;
37297;SDS011;30517;51.932;4.278;2023-02-28T06:35:49;4.80;;;2.78;;
37297;SDS011;30517;51.932;4.278;2023-02-28T06:38:31;5.57;;;3.00;;
37297;SDS011;30517;51.932;4.278;2023-02-28T06:41:12;5.82;;;3.25;;
37297;SDS011;30517;51.932;4.278;2023-02-28T06:43:53;6.68;;;3.42;;
37297;SDS011;30517;51.932;4.278;2023-02-28T06:46:34;4.82;;;2.65;;
37297;SDS011;30517;51.932;4.278;2023-02-28T06:49:15;6.28;;;3.17;;
37297;SDS011;30517;51.932;4.278;2023-02-28T06:51:57;5.55;;;3.10;;
37297;SDS011;30517;51.932;4.278;2023-02-28T06:54:37;5.22;;;3.15;;
37297;SDS011;30517;51.932;4.278;2023-02-28T06:57:18;5.55;;;3.35;;
37297;SDS011;30517;51.932;4.278;2023-02-28T06:59:59;4.82;;;2.75;;
37297;SDS011;30517;51.932;4.278;2023-02-28T07:02:43;5.13;;;2.95;;
37297;SDS011;30517;51.932;4.278;2023-02-28T07:05:23;5.30;;;3.25;;
37297;SDS011;30517;51.932;4.278;2023-02-28T07:08:05;6.78;;;3.30;;
37297;SDS011;30517;51.932;4.278;2023-02-28T07:10:46;6.30;;;3.78;;
37297;SDS011;30517;51.932;4.278;2023-02-28T07:13:27;5.68;;;3.30;;
37297;SDS011;30517;51.932;4.278;2023-02-28T07:16:09;6.35;;;3.67;;
37297;SDS011;30517;51.932;4.278;2023-02-28T07:21:33;5.35;;;3.03;;
37297;SDS011;30517;51.932;4.278;2023-02-28T07:24:13;5.55;;;3.05;;
37297;SDS011;30517;51.932;4.278;2023-02-28T07:26:56;5.97;;;3.30;;
37297;SDS011;30517;51.932;4.278;2023-02-28T07:29:37;5.68;;;2.97;;
37297;SDS011;30517;51.932;4.278;2023-02-28T07:32:18;5.40;;;3.00;;
37297;SDS011;30517;51.932;4.278;2023-02-28T07:34:59;5.47;;;2.90;;
37297;SDS011;30517;51.932;4.278;2023-02-28T07:37:41;4.28;;;2.60;;
37297;SDS011;30517;51.932;4.278;2023-02-28T07:40:22;5.95;;;3.05;;
37297;SDS011;30517;51.932;4.278;2023-02-28T07:43:03;5.30;;;3.13;;
37297;SDS011;30517;51.932;4.278;2023-02-28T07:45:44;5.45;;;2.85;;
37297;SDS011;30517;51.932;4.278;2023-02-28T07:48:24;5.03;;;2.90;;
37297;SDS011;30517;51.932;4.278;2023-02-28T07:51:05;5.30;;;3.20;;
37297;SDS011;30517;51.932;4.278;2023-02-28T07:53:47;5.40;;;2.90;;
37297;SDS011;30517;51.932;4.278;2023-02-28T07:56:27;6.15;;;3.15;;
37297;SDS011;30517;51.932;4.278;2023-02-28T07:59:13;5.22;;;3.03;;
37297;SDS011;30517;51.932;4.278;2023-02-28T08:01:53;6.22;;;3.00;;
37297;SDS011;30517;51.932;4.278;2023-02-28T08:04:34;4.38;;;2.53;;
37297;SDS011;30517;51.932;4.278;2023-02-28T08:07:15;5.40;;;2.90;;
37297;SDS011;30517;51.932;4.278;2023-02-28T08:09:57;6.03;;;3.03;;
37297;SDS011;30517;51.932;4.278;2023-02-28T08:12:38;4.70;;;2.63;;
37297;SDS011;30517;51.932;4.278;2023-02-28T08:15:19;5.35;;;2.92;;
37297;SDS011;30517;51.932;4.278;2023-02-28T08:17:59;5.70;;;2.90;;
37297;SDS011;30517;51.932;4.278;2023-02-28T08:20:40;4.95;;;2.70;;
37297;SDS011;30517;51.932;4.278;2023-02-28T08:23:21;4.78;;;2.65;;
37297;SDS011;30517;51.932;4.278;2023-02-28T08:26:02;5.13;;;2.85;;
37297;SDS011;30517;51.932;4.278;2023-02-28T08:28:44;4.47;;;2.30;;
37297;SDS011;30517;51.932;4.278;2023-02-28T08:31:24;5.82;;;3.03;;
37297;SDS011;30517;51.932;4.278;2023-02-28T08:34:09;6.07;;;2.92;;
37297;SDS011;30517;51.932;4.278;2023-02-28T08:36:51;7.40;;;3.28;;
37297;SDS011;30517;51.932;4.278;2023-02-28T08:39:36;5.38;;;2.90;;
37297;SDS011;30517;51.932;4.278;2023-02-28T08:42:17;5.63;;;2.55;;
37297;SDS011;30517;51.932;4.278;2023-02-28T08:44:57;4.90;;;2.78;;
37297;SDS011;30517;51.932;4.278;2023-02-28T08:47:38;4.72;;;2.67;;
37297;SDS011;30517;51.932;4.278;2023-02-28T08:50:19;4.80;;;2.70;;
37297;SDS011;30517;51.932;4.278;2023-02-28T08:53:00;5.07;;;2.95;;
37297;SDS011;30517;51.932;4.278;2023-02-28T08:55:41;5.25;;;2.75;;
37297;SDS011;30517;51.932;4.278;2023-02-28T08:58:22;5.35;;;2.58;;
37297;SDS011;30517;51.932;4.278;2023-02-28T09:01:10;4.57;;;2.65;;
37297;SDS011;30517;51.932;4.278;2023-02-28T09:03:55;5.05;;;2.53;;
37297;SDS011;30517;51.932;4.278;2023-02-28T09:06:37;5.05;;;2.75;;
37297;SDS011;30517;51.932;4.278;2023-02-28T09:09:18;4.40;;;2.53;;
37297;SDS011;30517;51.932;4.278;2023-02-28T09:11:59;5.85;;;3.00;;
37297;SDS011;30517;51.932;4.278;2023-02-28T09:14:40;4.85;;;2.78;;
37297;SDS011;30517;51.932;4.278;2023-02-28T09:17:21;5.90;;;2.78;;
37297;SDS011;30517;51.932;4.278;2023-02-28T09:20:01;5.15;;;2.92;;
37297;SDS011;30517;51.932;4.278;2023-02-28T09:22:42;5.75;;;3.10;;
37297;SDS011;30517;51.932;4.278;2023-02-28T09:25:23;5.82;;;3.15;;
37297;SDS011;30517;51.932;4.278;2023-02-28T09:28:04;4.65;;;2.63;;
37297;SDS011;30517;51.932;4.278;2023-02-28T09:30:45;4.45;;;2.65;;
37297;SDS011;30517;51.932;4.278;2023-02-28T09:33:28;6.15;;;3.03;;
37297;SDS011;30517;51.932;4.278;2023-02-28T09:36:08;5.30;;;2.75;;
37297;SDS011;30517;51.932;4.278;2023-02-28T09:38:49;5.82;;;2.92;;
37297;SDS011;30517;51.932;4.278;2023-02-28T09:41:40;6.07;;;3.03;;
37297;SDS011;30517;51.932;4.278;2023-02-28T09:47:17;4.55;;;2.92;;
37297;SDS011;30517;51.932;4.278;2023-02-28T09:53:15;4.20;;;2.30;;
37297;SDS011;30517;51.932;4.278;2023-02-28T10:07:41;4.75;;;2.45;;
37297;SDS011;30517;51.932;4.278;2023-02-28T10:10:27;4.30;;;2.50;;
37297;SDS011;30517;51.932;4.278;2023-02-28T10:13:36;6.60;;;2.97;;
37297;SDS011;30517;51.932;4.278;2023-02-28T10:16:29;5.63;;;2.47;;
37297;SDS011;30517;51.932;4.278;2023-02-28T10:19:16;5.20;;;2.97;;
37297;SDS011;30517;51.932;4.278;2023-02-28T10:22:11;5.18;;;2.47;;
37297;SDS011;30517;51.932;4.278;2023-02-28T10:24:57;3.63;;;2.15;;
37297;SDS011;30517;51.932;4.278;2023-02-28T10:27:42;5.05;;;2.80;;
37297;SDS011;30517;51.932;4.278;2023-02-28T10:30:24;4.28;;;2.17;;
37297;SDS011;30517;51.932;4.278;2023-02-28T10:33:04;4.60;;;2.60;;
37297;SDS011;30517;51.932;4.278;2023-02-28T10:35:45;4.90;;;2.72;;
37297;SDS011;30517;51.932;4.278;2023-02-28T10:38:27;4.53;;;2.58;;
37297;SDS011;30517;51.932;4.278;2023-02-28T10:41:14;4.35;;;2.55;;
37297;SDS011;30517;51.932;4.278;2023-02-28T10:46:53;3.40;;;1.98;;
37297;SDS011;30517;51.932;4.278;2023-02-28T10:49:36;4.35;;;2.42;;
37297;SDS011;30517;51.932;4.278;2023-02-28T10:52:38;4.75;;;2.28;;
37297;SDS011;30517;51.932;4.278;2023-02-28T10:55:22;4.43;;;2.45;;
37297;SDS011;30517;51.932;4.278;2023-02-28T10:58:17;5.97;;;2.78;;
37297;SDS011;30517;51.932;4.278;2023-02-28T11:01:02;3.90;;;2.30;;
37297;SDS011;30517;51.932;4.278;2023-02-28T11:03:43;4.93;;;2.42;;
37297;SDS011;30517;51.932;4.278;2023-02-28T11:06:25;4.55;;;2.65;;
37297;SDS011;30517;51.932;4.278;2023-02-28T11:09:56;5.32;;;2.67;;
37297;SDS011;30517;51.932;4.278;2023-02-28T11:12:20;4.13;;;2.55;;
37297;SDS011;30517;51.932;4.278;2023-02-28T11:15:06;4.65;;;2.50;;
37297;SDS011;30517;51.932;4.278;2023-02-28T11:20:58;4.57;;;2.35;;
37297;SDS011;30517;51.932;4.278;2023-02-28T11:23:41;5.30;;;2.90;;
37297;SDS011;30517;51.932;4.278;2023-02-28T11:26:37;4.10;;;2.20;;
37297;SDS011;30517;51.932;4.278;2023-02-28T11:29:32;4.35;;;2.22;;
37297;SDS011;30517;51.932;4.278;2023-02-28T11:32:19;3.90;;;2.05;;
37297;SDS011;30517;51.932;4.278;2023-02-28T11:37:51;5.38;;;2.80;;
37297;SDS011;30517;51.932;4.278;2023-02-28T11:49:44;5.05;;;2.75;;
37297;SDS011;30517;51.932;4.278;2023-02-28T11:52:40;5.07;;;2.45;;
37297;SDS011;30517;51.932;4.278;2023-02-28T11:55:32;3.70;;;2.22;;
37297;SDS011;30517;51.932;4.278;2023-02-28T11:58:26;4.63;;;2.30;;
37297;SDS011;30517;51.932;4.278;2023-02-28T12:06:45;4.28;;;2.35;;
37297;SDS011;30517;51.932;4.278;2023-02-28T12:19:12;4.22;;;2.35;;
37297;SDS011;30517;51.932;4.278;2023-02-28T12:22:05;3.83;;;2.30;;
37297;SDS011;30517;51.932;4.278;2023-02-28T12:27:47;4.07;;;2.08;;
37297;SDS011;30517;51.932;4.278;2023-02-28T12:33:13;5.10;;;2.40;;
37297;SDS011;30517;51.932;4.278;2023-02-28T12:35:58;4.72;;;2.70;;
37297;SDS011;30517;51.932;4.278;2023-02-28T12:38:43;5.28;;;2.83;;
37297;SDS011;30517;51.932;4.278;2023-02-28T12:44:18;4.80;;;2.60;;
37297;SDS011;30517;51.932;4.278;2023-02-28T12:47:12;5.43;;;2.75;;
37297;SDS011;30517;51.932;4.278;2023-02-28T12:49:59;4.78;;;2.40;;
37297;SDS011;30517;51.932;4.278;2023-02-28T12:53:04;4.53;;;2.70;;
37297;SDS011;30517;51.932;4.278;2023-02-28T12:56:10;4.20;;;2.40;;
37297;SDS011;30517;51.932;4.278;2023-02-28T12:59:06;4.22;;;2.58;;
37297;SDS011;30517;51.932;4.278;2023-02-28T13:02:19;4.63;;;2.50;;
37297;SDS011;30517;51.932;4.278;2023-02-28T13:05:19;4.50;;;2.78;;
37297;SDS011;30517;51.932;4.278;2023-02-28T13:11:29;4.53;;;2.65;;
37297;SDS011;30517;51.932;4.278;2023-02-28T13:17:14;4.35;;;2.53;;
37297;SDS011;30517;51.932;4.278;2023-02-28T13:20:02;3.60;;;2.30;;
37297;SDS011;30517;51.932;4.278;2023-02-28T13:22:44;4.68;;;2.65;;
37297;SDS011;30517;51.932;4.278;2023-02-28T13:28:13;4.70;;;2.53;;
37297;SDS011;30517;51.932;4.278;2023-02-28T13:31:29;4.22;;;2.45;;
37297;SDS011;30517;51.932;4.278;2023-02-28T13:34:13;4.05;;;2.28;;
37297;SDS011;30517;51.932;4.278;2023-02-28T13:40:06;4.78;;;2.60;;
37297;SDS011;30517;51.932;4.278;2023-02-28T13:42:47;5.72;;;2.53;;
37297;SDS011;30517;51.932;4.278;2023-02-28T13:45:30;4.70;;;2.15;;
37297;SDS011;30517;51.932;4.278;2023-02-28T13:48:18;4.45;;;2.50;;
37297;SDS011;30517;51.932;4.278;2023-02-28T13:51:25;4.35;;;2.40;;
37297;SDS011;30517;51.932;4.278;2023-02-28T13:54:29;4.38;;;2.40;;
37297;SDS011;30517;51.932;4.278;2023-02-28T14:00:07;5.05;;;2.40;;
37297;SDS011;30517;51.932;4.278;2023-02-28T14:06:35;4.72;;;2.67;;
37297;SDS011;30517;51.932;4.278;2023-02-28T14:09:26;4.38;;;2.60;;
37297;SDS011;30517;51.932;4.278;2023-02-28T14:21:16;4.38;;;2.50;;
37297;SDS011;30517;51.932;4.278;2023-02-28T14:29:53;5.03;;;2.70;;
37297;SDS011;30517;51.932;4.278;2023-02-28T14:36:30;4.80;;;2.80;;
37297;SDS011;30517;51.932;4.278;2023-02-28T14:39:06;4.45;;;2.58;;
37297;SDS011;30517;51.932;4.278;2023-02-28T14:41:51;4.63;;;2.40;;
37297;SDS011;30517;51.932;4.278;2023-02-28T14:44:32;4.47;;;2.38;;
37297;SDS011;30517;51.932;4.278;2023-02-28T14:47:14;4.70;;;2.65;;
37297;SDS011;30517;51.932;4.278;2023-02-28T14:52:37;4.40;;;2.65;;
37297;SDS011;30517;51.932;4.278;2023-02-28T14:55:19;5.10;;;2.85;;
37297;SDS011;30517;51.932;4.278;2023-02-28T14:58:06;5.10;;;2.90;;
37297;SDS011;30517;51.932;4.278;2023-02-28T15:00:48;7.35;;;2.85;;
37297;SDS011;30517;51.932;4.278;2023-02-28T15:06:14;4.43;;;2.55;;
37297;SDS011;30517;51.932;4.278;2023-02-28T15:09:07;4.97;;;2.92;;
37297;SDS011;30517;51.932;4.278;2023-02-28T15:11:49;4.80;;;2.70;;
37297;SDS011;30517;51.932;4.278;2023-02-28T15:14:30;4.57;;;2.50;;
37297;SDS011;30517;51.932;4.278;2023-02-28T15:17:15;5.30;;;2.67;;
37297;SDS011;30517;51.932;4.278;2023-02-28T15:20:03;4.63;;;2.60;;
37297;SDS011;30517;51.932;4.278;2023-02-28T15:22:44;4.97;;;2.78;;
37297;SDS011;30517;51.932;4.278;2023-02-28T15:28:11;4.55;;;2.72;;
37297;SDS011;30517;51.932;4.278;2023-02-28T15:31:00;5.72;;;2.70;;
37297;SDS011;30517;51.932;4.278;2023-02-28T15:33:52;4.30;;;2.65;;
37297;SDS011;30517;51.932;4.278;2023-02-28T15:36:34;4.35;;;2.55;;
37297;SDS011;30517;51.932;4.278;2023-02-28T15:39:18;3.97;;;2.50;;
37297;SDS011;30517;51.932;4.278;2023-02-28T15:42:11;5.03;;;2.40;;
37297;SDS011;30517;51.932;4.278;2023-02-28T15:44:53;4.07;;;2.53;;
37297;SDS011;30517;51.932;4.278;2023-02-28T15:47:34;4.43;;;2.72;;
37297;SDS011;30517;51.932;4.278;2023-02-28T15:50:16;4.50;;;2.65;;
37297;SDS011;30517;51.932;4.278;2023-02-28T15:52:58;4.25;;;2.30;;
37297;SDS011;30517;51.932;4.278;2023-02-28T15:55:41;4.88;;;2.85;;
37297;SDS011;30517;51.932;4.278;2023-02-28T15:58:22;5.47;;;2.90;;
37297;SDS011;30517;51.932;4.278;2023-02-28T16:01:05;5.32;;;3.17;;
37297;SDS011;30517;51.932;4.278;2023-02-28T16:03:48;4.53;;;2.75;;
37297;SDS011;30517;51.932;4.278;2023-02-28T16:06:33;4.03;;;2.45;;
37297;SDS011;30517;51.932;4.278;2023-02-28T16:09:14;4.70;;;2.38;;
37297;SDS011;30517;51.932;4.278;2023-02-28T16:11:59;3.90;;;2.30;;
37297;SDS011;30517;51.932;4.278;2023-02-28T16:14:42;4.60;;;2.80;;
37297;SDS011;30517;51.932;4.278;2023-02-28T16:17:26;3.63;;;1.92;;
37297;SDS011;30517;51.932;4.278;2023-02-28T16:20:12;4.18;;;2.28;;
37297;SDS011;30517;51.932;4.278;2023-02-28T16:22:56;4.80;;;2.45;;
37297;SDS011;30517;51.932;4.278;2023-02-28T16:25:42;5.25;;;2.72;;
37297;SDS011;30517;51.932;4.278;2023-02-28T16:28:29;5.03;;;2.50;;
37297;SDS011;30517;51.932;4.278;2023-02-28T16:31:12;3.85;;;2.25;;
37297;SDS011;30517;51.932;4.278;2023-02-28T16:33:56;3.65;;;2.00;;
37297;SDS011;30517;51.932;4.278;2023-02-28T16:36:37;4.85;;;2.58;;
37297;SDS011;30517;51.932;4.278;2023-02-28T16:39:17;5.28;;;2.33;;
37297;SDS011;30517;51.932;4.278;2023-02-28T16:42:00;4.03;;;2.05;;
37297;SDS011;30517;51.932;4.278;2023-02-28T16:44:41;5.10;;;2.67;;
37297;SDS011;30517;51.932;4.278;2023-02-28T16:47:22;5.10;;;2.88;;
37297;SDS011;30517;51.932;4.278;2023-02-28T16:50:08;4.97;;;2.45;;
37297;SDS011;30517;51.932;4.278;2023-02-28T16:52:53;3.90;;;2.10;;
37297;SDS011;30517;51.932;4.278;2023-02-28T16:55:34;4.38;;;2.40;;
37297;SDS011;30517;51.932;4.278;2023-02-28T16:58:16;4.00;;;2.30;;
37297;SDS011;30517;51.932;4.278;2023-02-28T17:00:57;4.70;;;2.60;;
37297;SDS011;30517;51.932;4.278;2023-02-28T17:03:38;4.40;;;2.67;;
37297;SDS011;30517;51.932;4.278;2023-02-28T17:06:21;4.70;;;2.30;;
37297;SDS011;30517;51.932;4.278;2023-02-28T17:09:04;4.05;;;2.28;;
37297;SDS011;30517;51.932;4.278;2023-02-28T17:11:48;4.80;;;2.78;;
37297;SDS011;30517;51.932;4.278;2023-02-28T17:14:29;4.60;;;2.20;;
37297;SDS011;30517;51.932;4.278;2023-02-28T17:17:15;4.40;;;2.10;;
37297;SDS011;30517;51.932;4.278;2023-02-28T17:19:58;5.32;;;2.30;;
37297;SDS011;30517;51.932;4.278;2023-02-28T17:22:39;7.53;;;2.50;;
37297;SDS011;30517;51.932;4.278;2023-02-28T17:25:20;5.40;;;2.53;;
37297;SDS011;30517;51.932;4.278;2023-02-28T17:28:01;4.18;;;2.40;;
37297;SDS011;30517;51.932;4.278;2023-02-28T17:30:42;4.60;;;2.45;;
37297;SDS011;30517;51.932;4.278;2023-02-28T17:33:26;4.18;;;2.58;;
37297;SDS011;30517;51.932;4.278;2023-02-28T17:36:13;4.88;;;2.35;;
37297;SDS011;30517;51.932;4.278;2023-02-28T17:38:55;4.13;;;2.33;;
37297;SDS011;30517;51.932;4.278;2023-02-28T17:41:38;4.05;;;2.30;;
37297;SDS011;30517;51.932;4.278;2023-02-28T17:44:19;3.95;;;2.25;;
37297;SDS011;30517;51.932;4.278;2023-02-28T17:47:01;5.07;;;2.05;;
37297;SDS011;30517;51.932;4.278;2023-02-28T17:49:41;4.43;;;2.63;;
37297;SDS011;30517;51.932;4.278;2023-02-28T17:52:22;5.78;;;2.40;;
37297;SDS011;30517;51.932;4.278;2023-02-28T17:55:03;3.75;;;2.10;;
37297;SDS011;30517;51.932;4.278;2023-02-28T17:57:44;4.38;;;2.42;;
37297;SDS011;30517;51.932;4.278;2023-02-28T18:00:25;4.38;;;2.38;;
37297;SDS011;30517;51.932;4.278;2023-02-28T18:03:06;4.60;;;2.65;;
37297;SDS011;30517;51.932;4.278;2023-02-28T18:05:48;4.07;;;2.40;;
37297;SDS011;30517;51.932;4.278;2023-02-28T18:08:29;4.45;;;2.40;;
37297;SDS011;30517;51.932;4.278;2023-02-28T18:11:11;3.72;;;2.22;;
37297;SDS011;30517;51.932;4.278;2023-02-28T18:14:00;4.80;;;2.42;;
37297;SDS011;30517;51.932;4.278;2023-02-28T18:16:42;5.50;;;2.88;;
37297;SDS011;30517;51.932;4.278;2023-02-28T18:19:23;4.47;;;2.70;;
37297;SDS011;30517;51.932;4.278;2023-02-28T18:22:04;5.75;;;2.58;;
37297;SDS011;30517;51.932;4.278;2023-02-28T18:24:48;4.75;;;2.55;;
37297;SDS011;30517;51.932;4.278;2023-02-28T18:27:29;4.95;;;3.00;;
37297;SDS011;30517;51.932;4.278;2023-02-28T18:30:10;5.05;;;2.58;;
37297;SDS011;30517;51.932;4.278;2023-02-28T18:32:51;4.30;;;2.40;;
37297;SDS011;30517;51.932;4.278;2023-02-28T18:35:32;4.25;;;2.38;;
37297;SDS011;30517;51.932;4.278;2023-02-28T18:38:14;3.78;;;2.30;;
37297;SDS011;30517;51.932;4.278;2023-02-28T18:40:59;6.03;;;3.33;;
37297;SDS011;30517;51.932;4.278;2023-02-28T18:43:42;5.28;;;3.10;;
37297;SDS011;30517;51.932;4.278;2023-02-28T18:46:23;5.28;;;2.75;;